Time;durP1;ratioP1;P1;durP2;ratioP2;P2;SDS_P1;SDS_P2;PMS_P1;PMS_P2;Temp;Humidity;BMP_temperature;BMP_pressure;BME280_temperature;BME280_humidity;BME280_pressure;Samples;Min_cycle;Max_cycle;Signal;HPM_P1;HPM_P2
2023/05/17 00:00:38;;;;;;;10.93;1.93;;;13.80;47.60;;;;;;5031405;28;20977;-77
2023/05/17 00:03:05;;;;;;;1.43;1.33;;;13.80;47.40;;;;;;5053198;28;20504;-79
2023/05/17 00:05:32;;;;;;;3.20;1.50;;;13.90;47.00;;;;;;5024993;28;20540;-79
2023/05/17 00:07:59;;;;;;;1.80;1.60;;;13.90;47.50;;;;;;5038646;28;20448;-78
2023/05/17 00:10:26;;;;;;;6.50;1.47;;;13.90;47.50;;;;;;5033723;28;20465;-80
2023/05/17 00:12:53;;;;;;;2.03;1.33;;;13.80;47.50;;;;;;5033472;28;20445;-79
2023/05/17 00:15:21;;;;;;;4.93;1.63;;;13.80;48.20;;;;;;5051652;28;20894;-80
2023/05/17 00:17:48;;;;;;;2.33;1.60;;;13.80;47.30;;;;;;5033276;28;20452;-80
2023/05/17 00:20:15;;;;;;;3.97;1.50;;;13.80;47.70;;;;;;5028057;28;21401;-80
2023/05/17 00:22:44;;;;;;;5.50;1.60;;;13.60;47.70;;;;;;5019962;28;20471;-79
2023/05/17 00:25:11;;;;;;;1.50;1.40;;;13.50;48.10;;;;;;5034852;28;20444;-81
2023/05/17 00:27:38;;;;;;;3.03;1.77;;;13.50;48.50;;;;;;5026874;28;20972;-78
2023/05/17 00:30:07;;;;;;;1.60;1.43;;;13.50;48.80;;;;;;5023609;28;20473;-80
2023/05/17 00:32:38;;;;;;;1.53;1.40;;;13.60;48.60;;;;;;5047350;28;20534;-80
2023/05/17 00:35:05;;;;;;;2.70;1.40;;;13.60;48.70;;;;;;5007476;28;20454;-82
2023/05/17 00:37:32;;;;;;;10.27;2.10;;;13.50;49.20;;;;;;5021455;28;20567;-78
2023/05/17 00:39:59;;;;;;;5.27;2.03;;;13.50;49.40;;;;;;5014609;28;20445;-80
2023/05/17 00:42:27;;;;;;;1.83;1.60;;;13.60;49.40;;;;;;5001246;28;20480;-79
2023/05/17 00:44:54;;;;;;;3.70;1.80;;;13.60;49.50;;;;;;5022505;28;20444;-79
2023/05/17 00:47:21;;;;;;;2.87;1.70;;;13.60;49.40;;;;;;5036394;28;20449;-80
2023/05/17 00:49:50;;;;;;;3.20;1.60;;;13.70;49.00;;;;;;5017084;28;20556;-80
2023/05/17 00:52:17;;;;;;;1.70;1.50;;;13.60;48.70;;;;;;5040058;28;20531;-81
2023/05/17 00:54:45;;;;;;;2.50;1.60;;;13.40;48.50;;;;;;5049259;28;20536;-81
2023/05/17 00:57:12;;;;;;;1.83;1.37;;;13.40;48.80;;;;;;5031760;28;20460;-79
2023/05/17 00:59:39;;;;;;;3.30;1.60;;;13.40;49.00;;;;;;5002609;28;20984;-78
2023/05/17 01:02:07;;;;;;;1.60;1.30;;;13.40;48.30;;;;;;5050005;28;20473;-79
2023/05/17 01:04:34;;;;;;;3.87;1.87;;;13.30;49.10;;;;;;5009064;28;20468;-81
2023/05/17 01:07:03;;;;;;;2.03;1.83;;;13.30;48.90;;;;;;5019141;28;20472;-78
2023/05/17 01:09:30;;;;;;;4.40;2.13;;;13.30;48.90;;;;;;5042274;28;20445;-81
2023/05/17 01:12:07;;;;;;;3.40;1.57;;;13.20;49.20;;;;;;5023605;28;20480;-81
2023/05/17 01:14:47;;;;;;;3.23;1.40;;;13.20;49.20;;;;;;5009731;28;20452;-80
2023/05/17 01:17:17;;;;;;;3.17;1.57;;;13.20;49.40;;;;;;5031326;28;20459;-77
2023/05/17 01:19:59;;;;;;;1.77;1.40;;;13.20;49.80;;;;;;5040700;28;20536;-81
2023/05/17 01:22:42;;;;;;;5.10;1.70;;;13.20;50.90;;;;;;5023347;28;20465;-80
2023/05/17 01:25:37;;;;;;;4.33;1.33;;;13.10;50.60;;;;;;5031132;28;20528;-80
2023/05/17 01:28:07;;;;;;;4.60;1.80;;;13.20;50.50;;;;;;5007521;28;20442;-77
2023/05/17 01:30:36;;;;;;;2.03;1.83;;;13.20;50.60;;;;;;5031850;28;20453;-79
2023/05/17 01:33:04;;;;;;;2.70;1.70;;;13.20;50.40;;;;;;5031785;28;20445;-81
2023/05/17 01:35:31;;;;;;;4.30;1.80;;;13.10;50.20;;;;;;5020358;28;20538;-80
2023/05/17 01:37:58;;;;;;;1.97;1.60;;;13.10;50.20;;;;;;5032360;28;20453;-78
2023/05/17 01:40:26;;;;;;;3.60;1.50;;;13.00;50.20;;;;;;5016574;28;20462;-80
2023/05/17 01:42:57;;;;;;;2.90;1.47;;;12.90;50.20;;;;;;5031756;28;20485;-80
2023/05/17 01:45:31;;;;;;;1.73;1.47;;;12.90;50.10;;;;;;5017350;28;20671;-81
2023/05/17 01:48:09;;;;;;;2.43;1.70;;;12.80;50.50;;;;;;5008059;28;20540;-80
2023/05/17 01:50:39;;;;;;;3.20;1.60;;;12.70;50.40;;;;;;5025553;28;20548;-81
2023/05/17 01:53:11;;;;;;;4.90;2.23;;;12.70;50.70;;;;;;5000025;28;20966;-78
2023/05/17 01:55:47;;;;;;;5.80;1.70;;;12.80;51.00;;;;;;5031002;28;20468;-78
2023/05/17 01:58:15;;;;;;;1.93;1.70;;;12.80;51.00;;;;;;5012789;28;20821;-81
2023/05/17 02:00:46;;;;;;;3.00;1.90;;;12.80;50.90;;;;;;5006561;28;20519;-81
2023/05/17 02:03:16;;;;;;;5.53;1.47;;;12.80;51.10;;;;;;5046144;28;20460;-80
2023/05/17 02:05:43;;;;;;;2.03;1.87;;;12.70;51.20;;;;;;5041238;28;20445;-80
2023/05/17 02:08:10;;;;;;;2.70;1.83;;;12.70;50.40;;;;;;5034131;28;20440;-82
2023/05/17 02:10:38;;;;;;;2.90;1.70;;;12.70;50.40;;;;;;5030474;28;20520;-78
2023/05/17 02:13:05;;;;;;;3.43;1.77;;;12.70;50.80;;;;;;5045907;28;20438;-81
2023/05/17 02:15:32;;;;;;;1.63;1.50;;;12.50;50.90;;;;;;5048382;28;21207;-78
2023/05/17 02:18:01;;;;;;;4.70;2.03;;;12.50;51.30;;;;;;5006046;28;20452;-80
2023/05/17 02:20:28;;;;;;;2.80;1.57;;;12.50;51.10;;;;;;5023666;28;20512;-79
2023/05/17 02:22:55;;;;;;;3.93;1.73;;;12.50;50.90;;;;;;5029434;28;20458;-80
2023/05/17 02:25:22;;;;;;;4.47;1.70;;;12.50;50.60;;;;;;5031842;28;20438;-80
2023/05/17 02:27:48;;;;;;;2.17;1.97;;;12.40;50.90;;;;;;5040188;28;20956;-79
2023/05/17 02:30:16;;;;;;;2.30;1.63;;;12.40;50.60;;;;;;5047726;28;20464;-80
2023/05/17 02:32:43;;;;;;;1.90;1.70;;;12.40;51.60;;;;;;5005872;28;20449;-79
2023/05/17 02:35:11;;;;;;;3.00;1.43;;;12.40;51.20;;;;;;5031005;28;21392;-78
2023/05/17 02:37:38;;;;;;;2.60;1.70;;;12.50;51.20;;;;;;5005099;28;20454;-79
2023/05/17 02:40:08;;;;;;;2.37;1.67;;;12.40;50.90;;;;;;5005109;28;21025;-82
2023/05/17 02:42:35;;;;;;;3.03;1.97;;;12.40;51.10;;;;;;5048101;28;20465;-78
2023/05/17 02:45:03;;;;;;;3.70;1.70;;;12.40;51.20;;;;;;5034407;28;20561;-78
2023/05/17 02:47:30;;;;;;;6.47;1.57;;;12.40;51.20;;;;;;5024020;28;20541;-82
2023/05/17 02:49:57;;;;;;;4.63;2.00;;;12.40;51.20;;;;;;5016571;28;20452;-78
2023/05/17 02:52:26;;;;;;;2.43;1.80;;;12.40;51.10;;;;;;4998779;28;20460;-81
2023/05/17 02:54:53;;;;;;;1.83;1.60;;;12.40;51.20;;;;;;5025055;28;20467;-79
2023/05/17 02:57:20;;;;;;;2.60;1.77;;;12.30;51.20;;;;;;5011119;28;20552;-80
2023/05/17 02:59:47;;;;;;;3.77;1.60;;;12.30;50.70;;;;;;5019854;28;20456;-81
2023/05/17 03:02:15;;;;;;;3.30;2.30;;;12.20;51.30;;;;;;5025261;28;20528;-82
2023/05/17 03:04:42;;;;;;;3.53;2.40;;;12.10;51.50;;;;;;5034081;28;21321;-77
2023/05/17 03:07:09;;;;;;;2.53;2.10;;;12.10;51.30;;;;;;5005826;28;20965;-78
2023/05/17 03:09:38;;;;;;;5.83;2.27;;;12.10;51.50;;;;;;5035546;28;20532;-81
2023/05/17 03:12:06;;;;;;;1.83;1.70;;;12.10;51.10;;;;;;5041793;28;20818;-78
2023/05/17 03:14:35;;;;;;;4.63;1.73;;;12.10;51.30;;;;;;5034967;28;20488;-78
2023/05/17 03:17:02;;;;;;;2.20;1.93;;;12.10;51.10;;;;;;5024082;28;20953;-78
2023/05/17 03:19:30;;;;;;;2.30;2.10;;;12.10;51.00;;;;;;5020882;28;20460;-80
2023/05/17 03:21:57;;;;;;;3.83;1.93;;;12.10;51.00;;;;;;5037361;28;20501;-81
2023/05/17 03:24:24;;;;;;;2.30;1.80;;;12.10;51.20;;;;;;5041527;28;20474;-80
2023/05/17 03:26:52;;;;;;;2.43;1.63;;;12.00;50.10;;;;;;5016051;28;20456;-79
2023/05/17 03:29:20;;;;;;;4.87;2.00;;;11.90;50.50;;;;;;5003978;28;20492;-80
2023/05/17 03:31:47;;;;;;;4.70;2.40;;;11.70;51.00;;;;;;5035877;28;20477;-79
2023/05/17 03:34:15;;;;;;;2.20;1.80;;;11.70;51.30;;;;;;5018786;28;20473;-79
2023/05/17 03:36:42;;;;;;;3.10;1.70;;;11.60;52.00;;;;;;5024699;28;21126;-79
2023/05/17 03:39:10;;;;;;;3.47;2.00;;;11.70;52.50;;;;;;5031632;28;20451;-80
2023/05/17 03:41:40;;;;;;;2.27;1.60;;;11.70;52.50;;;;;;5018634;28;20483;-78
2023/05/17 03:44:09;;;;;;;3.50;1.80;;;11.40;53.00;;;;;;5021019;28;20870;-80
2023/05/17 03:46:36;;;;;;;6.60;1.60;;;11.10;53.70;;;;;;5013496;28;20924;-80
2023/05/17 03:49:04;;;;;;;6.67;3.20;;;11.30;53.70;;;;;;5025447;28;20471;-81
2023/05/17 03:51:33;;;;;;;5.93;2.87;;;11.50;53.40;;;;;;5043188;28;20496;-80
2023/05/17 03:54:01;;;;;;;3.53;1.80;;;11.60;52.90;;;;;;5010126;28;20827;-82
2023/05/17 03:56:30;;;;;;;4.03;2.13;;;11.60;52.70;;;;;;5026585;28;20448;-79
2023/05/17 03:58:57;;;;;;;4.20;2.63;;;11.50;52.50;;;;;;5019302;28;20460;-78
2023/05/17 04:01:26;;;;;;;6.03;2.40;;;11.40;52.90;;;;;;5018449;28;20472;-79
2023/05/17 04:03:53;;;;;;;3.53;2.03;;;11.50;52.90;;;;;;5016431;28;20505;-81
2023/05/17 04:06:21;;;;;;;3.40;2.10;;;11.70;52.90;;;;;;5016043;28;20511;-81
2023/05/17 04:08:49;;;;;;;7.90;2.23;;;11.70;52.50;;;;;;5000482;28;20456;-81
2023/05/17 04:11:22;;;;;;;5.53;2.20;;;11.70;52.40;;;;;;5050912;28;20476;-80
2023/05/17 04:13:49;;;;;;;6.80;2.17;;;11.80;52.20;;;;;;5024428;28;20460;-78
2023/05/17 04:16:16;;;;;;;2.53;1.70;;;11.80;52.30;;;;;;5025296;28;20946;-81
2023/05/17 04:18:45;;;;;;;3.63;2.47;;;11.80;52.20;;;;;;5031225;28;20861;-81
2023/05/17 04:21:12;;;;;;;3.73;2.50;;;11.80;52.70;;;;;;5032607;28;20479;-79
2023/05/17 04:23:40;;;;;;;4.50;3.00;;;11.70;52.70;;;;;;5017266;28;20946;-80
2023/05/17 04:26:09;;;;;;;7.37;2.80;;;11.70;52.80;;;;;;5018454;28;20457;-81
2023/05/17 04:28:40;;;;;;;3.03;2.83;;;11.70;53.00;;;;;;5015748;28;20452;-81
2023/05/17 04:31:08;;;;;;;3.13;2.20;;;11.70;53.00;;;;;;5039035;28;20489;-80
2023/05/17 04:33:35;;;;;;;3.87;2.23;;;11.80;52.90;;;;;;5031313;28;20481;-80
2023/05/17 04:36:04;;;;;;;1.83;1.73;;;11.90;53.20;;;;;;5015996;28;20449;-81
2023/05/17 04:38:32;;;;;;;6.00;2.47;;;11.90;53.80;;;;;;5017943;28;20449;-82
2023/05/17 04:41:03;;;;;;;3.20;1.97;;;11.90;53.80;;;;;;5018218;28;20536;-78
2023/05/17 04:43:32;;;;;;;2.37;2.17;;;11.90;54.20;;;;;;5020695;28;20485;-78
2023/05/17 04:46:00;;;;;;;7.33;2.80;;;11.70;55.00;;;;;;5032118;28;20580;-78
2023/05/17 04:48:31;;;;;;;9.20;2.77;;;11.70;55.40;;;;;;5039325;28;21298;-79
2023/05/17 04:51:00;;;;;;;3.60;3.20;;;11.80;55.00;;;;;;5009307;28;20477;-77
2023/05/17 04:53:29;;;;;;;3.43;2.80;;;11.80;54.90;;;;;;5029959;28;20446;-79
2023/05/17 04:55:56;;;;;;;4.53;3.30;;;11.90;55.00;;;;;;5027793;28;20452;-80
2023/05/17 04:58:24;;;;;;;8.97;3.70;;;12.00;54.70;;;;;;5007711;28;20463;-80
2023/05/17 05:00:55;;;;;;;9.13;4.13;;;11.90;54.80;;;;;;5024198;28;20468;-81
2023/05/17 05:03:22;;;;;;;6.40;3.30;;;11.90;55.10;;;;;;5012087;28;20473;-81
2023/05/17 05:05:50;;;;;;;5.50;4.10;;;12.00;55.20;;;;;;5038752;28;20446;-78
2023/05/17 05:08:17;;;;;;;3.70;3.30;;;12.10;55.20;;;;;;5023341;28;20472;-80
2023/05/17 05:10:47;;;;;;;4.60;3.40;;;12.10;55.00;;;;;;5015958;28;20571;-78
2023/05/17 05:13:16;;;;;;;6.33;3.13;;;12.20;55.00;;;;;;5014563;28;20969;-79
2023/05/17 05:15:43;;;;;;;8.47;3.80;;;12.30;54.80;;;;;;5015518;28;20453;-79
2023/05/17 05:18:10;;;;;;;4.50;3.10;;;12.30;54.70;;;;;;5035059;28;20489;-78
2023/05/17 05:20:37;;;;;;;3.30;3.00;;;12.30;54.90;;;;;;5029866;28;20477;-79
2023/05/17 05:23:06;;;;;;;6.33;2.97;;;12.30;55.30;;;;;;5000366;28;20454;-81
2023/05/17 05:25:35;;;;;;;3.00;2.80;;;12.10;56.40;;;;;;5017088;28;21187;-80
2023/05/17 05:28:04;;;;;;;7.17;2.90;;;12.00;56.80;;;;;;5015000;28;21412;-81
2023/05/17 05:30:32;;;;;;;4.63;2.90;;;12.20;56.50;;;;;;5015134;28;20536;-82
2023/05/17 05:32:59;;;;;;;5.20;2.70;;;12.30;56.80;;;;;;5020694;28;20483;-78
2023/05/17 05:35:28;;;;;;;4.07;2.57;;;12.30;56.90;;;;;;5016522;28;20464;-80
2023/05/17 05:37:57;;;;;;;3.23;2.50;;;12.40;56.50;;;;;;5039281;28;20521;-82
2023/05/17 05:40:24;;;;;;;4.60;2.60;;;12.40;56.60;;;;;;5014974;28;20467;-79
2023/05/17 05:42:51;;;;;;;9.13;3.00;;;12.20;57.10;;;;;;5020763;28;20445;-81
2023/05/17 05:45:20;;;;;;;9.70;2.80;;;12.40;56.90;;;;;;5030637;28;20986;-83
2023/05/17 05:47:48;;;;;;;4.70;2.70;;;12.60;56.20;;;;;;4997971;28;20544;-80
2023/05/17 05:50:15;;;;;;;6.80;2.70;;;12.60;56.60;;;;;;5013408;28;20548;-79
2023/05/17 05:52:44;;;;;;;3.40;3.00;;;12.50;57.10;;;;;;5027750;28;20438;-79
2023/05/17 05:55:11;;;;;;;3.13;2.70;;;12.50;57.20;;;;;;5028673;28;20452;-80
2023/05/17 05:57:38;;;;;;;2.57;2.33;;;12.50;56.80;;;;;;5034502;28;20509;-80
2023/05/17 06:00:07;;;;;;;3.80;2.80;;;12.60;56.80;;;;;;5013236;28;20441;-79
2023/05/17 06:02:41;;;;;;;3.37;2.57;;;12.70;56.20;;;;;;5045722;28;20837;-80
2023/05/17 06:05:08;;;;;;;2.90;2.70;;;13.10;56.10;;;;;;5016802;28;20528;-80
2023/05/17 06:07:35;;;;;;;9.03;2.77;;;13.40;55.10;;;;;;5030670;28;20903;-80
2023/05/17 06:10:02;;;;;;;6.73;3.20;;;13.50;54.60;;;;;;5046304;28;20449;-81
2023/05/17 06:12:29;;;;;;;9.87;2.70;;;13.70;54.30;;;;;;5013960;28;20519;-80
2023/05/17 06:14:56;;;;;;;4.40;3.27;;;13.80;54.20;;;;;;5012548;28;21280;-79
2023/05/17 06:17:23;;;;;;;8.03;3.80;;;13.70;54.20;;;;;;5010381;28;20460;-79
2023/05/17 06:19:51;;;;;;;5.00;2.80;;;13.90;54.70;;;;;;5002668;28;20528;-80
2023/05/17 06:22:18;;;;;;;4.90;2.70;;;14.00;54.30;;;;;;5028206;28;20453;-80
2023/05/17 06:24:45;;;;;;;4.00;2.83;;;14.10;53.20;;;;;;5035951;28;21012;-80
2023/05/17 06:27:12;;;;;;;3.80;2.37;;;14.20;54.00;;;;;;5027640;28;20457;-81
2023/05/17 06:29:39;;;;;;;5.33;2.43;;;14.40;54.20;;;;;;5031486;28;20456;-80
2023/05/17 06:32:07;;;;;;;2.63;2.13;;;14.50;52.60;;;;;;5027598;28;20468;-83
2023/05/17 06:34:34;;;;;;;3.83;3.00;;;14.70;53.20;;;;;;5047484;28;20460;-80
2023/05/17 06:37:02;;;;;;;5.63;2.50;;;14.70;52.40;;;;;;5014135;28;20461;-80
2023/05/17 06:39:29;;;;;;;8.60;2.77;;;14.90;53.00;;;;;;5015179;28;20456;-78
2023/05/17 06:41:56;;;;;;;3.87;2.83;;;15.00;51.80;;;;;;5016612;28;20508;-81
2023/05/17 06:44:23;;;;;;;3.80;2.47;;;15.10;52.30;;;;;;5029297;28;20527;-81
2023/05/17 06:46:50;;;;;;;10.27;3.43;;;15.20;52.00;;;;;;5021503;28;20951;-80
2023/05/17 06:49:17;;;;;;;4.30;3.40;;;15.30;51.40;;;;;;4995198;28;20541;-82
2023/05/17 06:51:44;;;;;;;5.00;2.70;;;15.30;50.50;;;;;;4995274;28;20465;-81
2023/05/17 06:54:12;;;;;;;6.07;2.83;;;15.40;50.00;;;;;;5007292;28;21220;-79
2023/05/17 06:56:39;;;;;;;3.47;2.70;;;15.50;49.50;;;;;;5033013;28;21066;-81
2023/05/17 06:59:06;;;;;;;5.57;2.77;;;15.50;49.00;;;;;;5033676;28;20449;-79
2023/05/17 07:01:33;;;;;;;4.20;2.80;;;15.60;49.90;;;;;;5031379;28;20459;-78
2023/05/17 07:04:00;;;;;;;4.57;2.60;;;15.60;50.10;;;;;;5048101;28;20481;-79
2023/05/17 07:06:27;;;;;;;10.63;2.87;;;15.60;48.40;;;;;;5050407;28;20527;-80
2023/05/17 07:08:54;;;;;;;6.87;3.37;;;15.30;48.60;;;;;;5049992;28;21297;-78
2023/05/17 07:11:22;;;;;;;12.90;4.20;;;15.10;48.80;;;;;;5024194;28;20651;-78
2023/05/17 07:13:49;;;;;;;6.03;2.50;;;15.10;50.00;;;;;;5049471;28;20458;-78
2023/05/17 07:16:16;;;;;;;7.00;2.57;;;15.30;50.00;;;;;;5018647;28;20441;-79
2023/05/17 07:18:44;;;;;;;5.37;2.70;;;15.50;49.30;;;;;;5013071;28;20461;-78
2023/05/17 07:21:11;;;;;;;3.93;3.00;;;15.60;49.00;;;;;;5016222;28;20466;-78
2023/05/17 07:23:38;;;;;;;3.97;2.23;;;15.70;47.60;;;;;;5032872;28;20448;-78
2023/05/17 07:26:06;;;;;;;3.73;2.23;;;15.80;47.20;;;;;;5023634;28;20448;-78
2023/05/17 07:28:34;;;;;;;3.50;2.07;;;15.90;46.80;;;;;;5006864;28;20461;-79
2023/05/17 07:31:01;;;;;;;4.10;2.10;;;15.90;46.80;;;;;;5048774;28;21000;-79
2023/05/17 07:33:28;;;;;;;3.03;2.20;;;15.90;46.50;;;;;;5007281;28;21203;-78
2023/05/17 07:35:55;;;;;;;7.30;3.20;;;15.90;47.10;;;;;;5015932;28;20460;-80
2023/05/17 07:38:22;;;;;;;4.17;2.40;;;15.90;45.90;;;;;;5049396;28;20437;-79
2023/05/17 07:40:49;;;;;;;3.43;2.37;;;15.80;46.40;;;;;;5033540;28;20474;-78
2023/05/17 07:43:16;;;;;;;6.03;2.90;;;16.10;47.00;;;;;;5016093;28;20576;-79
2023/05/17 07:45:44;;;;;;;5.10;3.20;;;16.10;46.10;;;;;;5050157;28;20575;-80
2023/05/17 07:48:11;;;;;;;7.10;2.67;;;16.20;46.70;;;;;;5035376;28;20900;-80
2023/05/17 07:50:39;;;;;;;6.60;2.83;;;15.90;45.90;;;;;;5031506;28;20519;-78
2023/05/17 07:53:06;;;;;;;8.47;2.70;;;16.00;46.00;;;;;;5010758;28;20449;-80
2023/05/17 07:55:33;;;;;;;6.90;3.33;;;16.00;45.60;;;;;;5019769;28;20910;-78
2023/05/17 07:58:00;;;;;;;4.80;2.73;;;15.80;46.40;;;;;;5030115;28;20453;-79
2023/05/17 08:00:28;;;;;;;6.07;3.33;;;15.90;46.30;;;;;;5033326;28;20556;-79
2023/05/17 08:02:56;;;;;;;6.80;3.03;;;16.00;46.30;;;;;;5052533;28;20532;-80
2023/05/17 08:05:24;;;;;;;6.77;3.20;;;16.00;47.10;;;;;;5026714;28;20461;-79
2023/05/17 08:07:51;;;;;;;4.70;2.33;;;16.10;46.40;;;;;;5051346;28;20517;-79
2023/05/17 08:10:18;;;;;;;6.40;3.17;;;15.90;46.60;;;;;;5032427;28;20550;-80
2023/05/17 08:12:45;;;;;;;4.60;3.00;;;15.70;46.70;;;;;;5022303;28;20437;-79
2023/05/17 08:15:12;;;;;;;6.93;2.73;;;15.70;47.10;;;;;;5032881;28;20454;-79
2023/05/17 08:17:39;;;;;;;3.83;3.07;;;15.70;47.10;;;;;;5032760;28;20461;-79
2023/05/17 08:20:09;;;;;;;3.70;2.60;;;15.60;47.50;;;;;;5026426;28;20461;-80
2023/05/17 08:22:36;;;;;;;7.43;3.50;;;15.50;47.00;;;;;;5033624;28;20537;-79
2023/05/17 08:25:04;;;;;;;5.60;2.73;;;15.50;47.80;;;;;;5033698;28;20473;-79
2023/05/17 08:27:31;;;;;;;4.37;3.10;;;15.50;48.30;;;;;;5003498;28;21288;-79
2023/05/17 08:29:58;;;;;;;5.83;2.40;;;15.50;48.30;;;;;;5017466;28;20951;-79
2023/05/17 08:32:26;;;;;;;5.03;2.90;;;15.60;47.70;;;;;;5020186;28;20961;-79
2023/05/17 08:34:53;;;;;;;5.43;2.60;;;15.80;47.90;;;;;;5029631;28;20450;-78
2023/05/17 08:37:21;;;;;;;7.57;3.07;;;16.10;48.30;;;;;;5035250;28;20449;-79
2023/05/17 08:39:50;;;;;;;7.47;2.90;;;16.30;47.30;;;;;;5032725;28;21251;-79
2023/05/17 08:42:23;;;;;;;5.63;2.60;;;16.40;46.20;;;;;;5032685;28;20447;-79
2023/05/17 08:44:51;;;;;;;4.03;3.23;;;16.40;45.40;;;;;;5034557;28;20547;-79
2023/05/17 08:47:28;;;;;;;5.90;3.83;;;16.20;46.30;;;;;;5021686;28;20458;-79
2023/05/17 08:49:59;;;;;;;9.47;3.87;;;16.30;46.50;;;;;;5033774;28;21469;-79
2023/05/17 08:52:31;;;;;;;7.03;3.33;;;16.30;45.90;;;;;;5029471;28;20450;-79
2023/05/17 08:54:59;;;;;;;7.93;3.77;;;16.30;46.90;;;;;;5039625;28;20460;-80
2023/05/17 08:57:28;;;;;;;5.10;3.13;;;16.40;46.90;;;;;;5048166;28;20449;-79
2023/05/17 08:59:58;;;;;;;13.67;3.33;;;16.30;46.80;;;;;;5009797;28;20441;-80
2023/05/17 09:02:26;;;;;;;7.93;3.07;;;16.60;47.40;;;;;;5016295;28;20531;-79
2023/05/17 09:04:54;;;;;;;6.17;3.00;;;16.70;44.50;;;;;;5017640;28;20476;-79
2023/05/17 09:07:22;;;;;;;8.33;2.40;;;16.60;45.60;;;;;;5006462;28;20532;-79
2023/05/17 09:09:52;;;;;;;3.63;2.47;;;16.50;45.60;;;;;;5033662;28;20466;-80
2023/05/17 09:12:20;;;;;;;5.87;3.30;;;16.70;44.00;;;;;;5036084;28;20854;-78
2023/05/17 09:14:47;;;;;;;7.77;3.17;;;16.40;45.00;;;;;;5035802;28;20909;-79
2023/05/17 09:17:16;;;;;;;6.73;3.30;;;16.40;45.10;;;;;;5013191;28;20445;-79
2023/05/17 09:19:44;;;;;;;6.60;3.40;;;16.50;45.90;;;;;;5014514;28;20458;-80
2023/05/17 09:22:13;;;;;;;3.50;2.23;;;16.60;43.60;;;;;;5049252;28;20480;-80
2023/05/17 09:24:41;;;;;;;6.30;2.70;;;16.60;44.90;;;;;;5027064;28;20465;-79
2023/05/17 09:27:14;;;;;;;5.10;2.97;;;16.70;44.40;;;;;;5006793;28;20449;-79
2023/05/17 09:29:41;;;;;;;4.57;2.53;;;16.70;45.00;;;;;;5052269;28;20437;-79
2023/05/17 09:32:13;;;;;;;5.33;3.07;;;16.60;43.00;;;;;;5033446;28;20473;-79
2023/05/17 09:34:41;;;;;;;9.03;4.37;;;16.70;43.80;;;;;;5002943;28;20458;-81
2023/05/17 09:37:14;;;;;;;3.20;2.30;;;17.00;44.60;;;;;;5033183;28;20925;-78
2023/05/17 09:39:43;;;;;;;3.80;2.50;;;17.00;43.00;;;;;;5031258;28;20452;-81
2023/05/17 09:42:12;;;;;;;4.20;2.70;;;17.00;44.10;;;;;;5033871;28;20477;-81
2023/05/17 09:44:57;;;;;;;2.50;2.27;;;17.10;44.30;;;;;;5048243;28;20445;-79
2023/05/17 09:47:26;;;;;;;5.27;3.00;;;17.10;44.00;;;;;;5036354;28;20446;-79
2023/05/17 09:49:55;;;;;;;4.17;2.80;;;17.00;42.50;;;;;;5033551;28;20458;-79
2023/05/17 09:52:22;;;;;;;3.23;2.50;;;16.80;43.40;;;;;;5034311;28;20562;-82
2023/05/17 09:54:53;;;;;;;5.97;3.33;;;16.70;43.90;;;;;;5009844;28;20464;-80
2023/05/17 09:57:22;;;;;;;4.67;2.97;;;16.30;44.20;;;;;;5019274;28;20460;-81
2023/05/17 09:59:50;;;;;;;6.07;3.10;;;16.30;44.20;;;;;;5016998;28;20461;-79
2023/05/17 10:02:22;;;;;;;5.83;3.03;;;16.10;44.90;;;;;;5033790;28;20545;-80
2023/05/17 10:04:50;;;;;;;4.80;3.60;;;16.10;44.10;;;;;;5043297;28;20962;-77
2023/05/17 10:07:21;;;;;;;7.03;2.73;;;16.20;44.00;;;;;;5034965;28;20450;-80
2023/05/17 10:09:49;;;;;;;8.00;3.27;;;16.30;44.30;;;;;;5019003;28;20962;-78
2023/05/17 10:12:18;;;;;;;6.80;3.30;;;16.40;44.20;;;;;;5017059;28;20887;-81
2023/05/17 10:14:47;;;;;;;5.50;2.97;;;16.40;44.80;;;;;;5007686;28;20456;-84
2023/05/17 10:17:15;;;;;;;6.23;2.40;;;16.50;44.30;;;;;;5041568;28;20449;-80
2023/05/17 10:19:42;;;;;;;3.97;2.53;;;16.40;44.30;;;;;;5020092;28;20861;-81
2023/05/17 10:22:10;;;;;;;3.50;2.83;;;16.10;44.00;;;;;;5017796;28;20471;-81
2023/05/17 10:24:38;;;;;;;4.90;2.80;;;16.20;44.70;;;;;;5034089;28;21028;-81
2023/05/17 10:27:06;;;;;;;4.83;2.77;;;16.30;43.80;;;;;;5019162;28;20453;-80
2023/05/17 10:29:34;;;;;;;3.70;2.53;;;16.40;43.60;;;;;;5016812;28;20551;-80
2023/05/17 10:32:07;;;;;;;5.40;3.20;;;16.70;44.50;;;;;;5017130;28;20473;-80
2023/05/17 10:34:34;;;;;;;4.90;2.67;;;16.80;42.30;;;;;;5048710;28;20461;-79
2023/05/17 10:37:03;;;;;;;3.97;2.50;;;17.00;43.80;;;;;;5019491;28;20515;-80
2023/05/17 10:39:33;;;;;;;9.03;3.50;;;17.20;43.90;;;;;;5022788;28;20476;-82
2023/05/17 10:42:04;;;;;;;5.03;3.03;;;17.20;43.00;;;;;;5033852;28;20464;-83
2023/05/17 10:44:32;;;;;;;4.17;2.70;;;17.20;41.80;;;;;;5005202;28;20451;-80
2023/05/17 10:47:00;;;;;;;3.93;2.33;;;17.10;40.90;;;;;;5016513;28;20469;-82
2023/05/17 10:49:30;;;;;;;3.20;2.77;;;17.00;41.60;;;;;;5036475;28;20803;-81
2023/05/17 10:51:57;;;;;;;7.23;2.40;;;16.90;41.20;;;;;;5032081;28;20469;-80
2023/05/17 10:54:34;;;;;;;4.70;2.70;;;17.20;42.10;;;;;;5047692;28;20484;-79
2023/05/17 10:57:04;;;;;;;6.57;3.63;;;17.40;40.70;;;;;;5020583;28;20579;-80
2023/05/17 10:59:32;;;;;;;4.20;2.43;;;17.50;40.10;;;;;;5028090;28;20865;-80
2023/05/17 11:02:02;;;;;;;8.80;3.00;;;17.70;40.40;;;;;;5015682;28;20460;-79
2023/05/17 11:04:36;;;;;;;8.53;3.30;;;17.70;40.80;;;;;;5039748;28;20504;-79
2023/05/17 11:07:25;;;;;;;5.53;2.80;;;17.80;40.20;;;;;;5032378;28;20568;-78
2023/05/17 11:09:54;;;;;;;3.53;2.33;;;17.90;40.00;;;;;;5035012;28;20940;-81
2023/05/17 11:12:30;;;;;;;7.57;3.20;;;17.60;39.80;;;;;;5036016;28;21060;-80
2023/05/17 11:14:57;;;;;;;6.27;2.80;;;17.70;40.10;;;;;;5018643;28;21354;-82
2023/05/17 11:17:26;;;;;;;6.83;3.27;;;17.70;40.50;;;;;;5023661;28;20456;-79
2023/05/17 11:20:01;;;;;;;6.20;2.33;;;17.70;40.20;;;;;;5025849;28;20455;-79
2023/05/17 11:22:35;;;;;;;4.43;2.93;;;17.60;40.40;;;;;;5022817;28;20457;-81
2023/05/17 11:25:07;;;;;;;6.47;2.47;;;17.50;39.70;;;;;;5004110;28;20973;-81
2023/05/17 11:27:40;;;;;;;2.80;2.10;;;17.60;40.20;;;;;;5014025;28;20513;-81
2023/05/17 11:30:17;;;;;;;4.63;2.67;;;17.60;39.50;;;;;;5038509;28;20818;-80
2023/05/17 11:32:47;;;;;;;4.07;2.80;;;17.70;39.80;;;;;;5035880;28;20452;-80
2023/05/17 11:35:17;;;;;;;5.73;2.63;;;17.80;38.70;;;;;;5004130;28;20453;-79
2023/05/17 11:37:45;;;;;;;3.20;2.30;;;17.70;38.50;;;;;;5051729;28;20462;-80
2023/05/17 11:40:14;;;;;;;6.90;2.90;;;17.80;38.80;;;;;;5027699;28;22342;-81
2023/05/17 11:42:41;;;;;;;8.00;2.33;;;18.20;39.30;;;;;;5001453;28;20452;-80
2023/05/17 11:45:09;;;;;;;4.73;2.30;;;18.50;37.90;;;;;;5035473;28;21049;-82
2023/05/17 11:47:41;;;;;;;3.23;2.10;;;18.70;38.00;;;;;;5034009;28;20512;-80
2023/05/17 11:50:09;;;;;;;2.87;2.17;;;18.80;37.00;;;;;;5017925;28;20449;-81
2023/05/17 11:52:40;;;;;;;3.30;2.20;;;18.70;37.50;;;;;;5020890;28;21067;-83
2023/05/17 11:55:08;;;;;;;5.73;2.27;;;18.60;36.60;;;;;;5021554;28;20449;-82
2023/05/17 11:57:38;;;;;;;5.33;2.60;;;18.40;36.50;;;;;;5017751;28;20449;-81
2023/05/17 12:00:07;;;;;;;5.63;2.80;;;18.50;37.70;;;;;;5035083;28;20445;-79
2023/05/17 12:02:40;;;;;;;5.20;2.30;;;18.40;36.70;;;;;;5017953;28;20475;-81
2023/05/17 12:05:08;;;;;;;4.67;2.20;;;18.60;37.70;;;;;;5038574;28;20436;-81
2023/05/17 12:07:36;;;;;;;4.70;2.00;;;18.90;36.40;;;;;;5027645;28;20507;-79
2023/05/17 12:10:05;;;;;;;5.60;3.00;;;19.00;37.20;;;;;;5018693;28;20494;-82
2023/05/17 12:12:32;;;;;;;4.20;1.97;;;19.40;36.50;;;;;;5031385;28;20473;-80
2023/05/17 12:14:59;;;;;;;7.47;2.23;;;19.50;36.20;;;;;;5041892;28;20453;-78
2023/05/17 12:17:35;;;;;;;3.70;2.60;;;19.80;36.50;;;;;;5014986;28;20469;-82
2023/05/17 12:20:09;;;;;;;5.43;2.20;;;20.00;35.50;;;;;;5019287;28;20463;-77
2023/05/17 12:22:52;;;;;;;4.70;2.40;;;20.20;35.40;;;;;;5001600;28;20444;-79
2023/05/17 12:25:24;;;;;;;4.73;2.33;;;19.90;33.10;;;;;;5034948;28;20450;-78
2023/05/17 12:27:51;;;;;;;6.47;2.60;;;19.60;34.70;;;;;;5031320;28;20485;-76
2023/05/17 12:30:19;;;;;;;11.20;2.83;;;19.50;34.50;;;;;;5016915;28;20464;-79
2023/05/17 12:32:47;;;;;;;8.33;2.43;;;19.50;33.90;;;;;;5016862;28;20450;-79
2023/05/17 12:35:14;;;;;;;5.33;2.90;;;19.70;33.70;;;;;;5019021;28;20995;-80
2023/05/17 12:37:41;;;;;;;4.30;2.07;;;19.90;33.50;;;;;;5030878;28;20448;-78
2023/05/17 12:40:10;;;;;;;3.87;2.33;;;20.20;33.10;;;;;;5049380;28;20445;-79
2023/05/17 12:42:42;;;;;;;6.23;2.17;;;20.40;31.70;;;;;;5008977;28;20475;-80
2023/05/17 12:45:12;;;;;;;6.03;2.40;;;20.40;31.40;;;;;;5026565;28;20485;-77
2023/05/17 12:47:39;;;;;;;9.53;2.50;;;20.40;32.40;;;;;;5030298;28;20477;-80
2023/05/17 12:50:07;;;;;;;3.07;2.10;;;21.10;33.60;;;;;;5042676;28;20445;-79
2023/05/17 12:52:35;;;;;;;4.70;2.67;;;21.30;31.10;;;;;;5035132;28;20503;-81